createdAt,value
2023-06-29T00:01:53.426Z,97969.88
2023-06-29T00:04:27.445Z,97965.84
2023-06-29T00:06:58.202Z,97970.41
2023-06-29T00:09:28.777Z,97963.53
2023-06-29T00:12:01.900Z,97971.19
2023-06-29T00:14:32.393Z,97967.88
2023-06-29T00:17:02.919Z,97975.25
2023-06-29T00:19:33.449Z,97972.44
2023-06-29T00:22:03.968Z,97972.94
2023-06-29T00:24:35.488Z,97969.91
2023-06-29T00:27:09.556Z,97982.09
2023-06-29T00:29:40.177Z,97972.97
2023-06-29T00:32:12.879Z,97973.72
2023-06-29T00:34:43.594Z,97972.97
2023-06-29T00:37:14.357Z,97980.09
2023-06-29T00:39:44.866Z,97979.81
2023-06-29T00:42:18.131Z,97968.41
2023-06-29T00:44:49.650Z,97970.94
2023-06-29T00:47:21.330Z,97962.03
2023-06-29T00:49:51.912Z,97969.91
2023-06-29T00:52:22.804Z,97964.56
2023-06-29T00:54:53.028Z,97971.16
2023-06-29T00:57:26.481Z,97959.97
2023-06-29T01:00:00.870Z,97969.66
2023-06-29T01:02:33.517Z,97963.31
2023-06-29T01:05:06.294Z,97958.47
2023-06-29T01:07:41.747Z,97960.25
2023-06-29T01:10:15.441Z,97968.13
2023-06-29T01:12:50.407Z,97969.38
2023-06-29T01:15:21.633Z,97969.38
2023-06-29T01:17:55.787Z,97960.72
2023-06-29T01:20:28.154Z,97957.44
2023-06-29T01:23:04.628Z,97956.41
2023-06-29T01:25:39.539Z,97951.31
2023-06-29T01:28:11.355Z,97948.75
2023-06-29T01:30:50.052Z,97955.09
2023-06-29T01:33:25.560Z,97950.50
2023-06-29T01:36:04.425Z,97945.69
2023-06-29T01:38:41.647Z,97949.22
2023-06-29T01:41:17.121Z,97942.09
2023-06-29T01:43:48.758Z,97943.13
2023-06-29T01:46:20.167Z,97944.91
2023-06-29T01:48:51.521Z,97949.75
2023-06-29T01:51:22.373Z,97951.25
2023-06-29T01:53:53.678Z,97952.00
2023-06-29T01:56:26.837Z,97954.31
2023-06-29T01:58:57.332Z,97942.63
2023-06-29T02:01:27.927Z,97941.38
2023-06-29T02:03:58.641Z,97941.38
2023-06-29T02:06:29.424Z,97944.41
2023-06-29T02:09:00.025Z,97949.47
2023-06-29T02:11:33.318Z,97947.44
2023-06-29T02:14:03.887Z,97950.47
2023-06-29T02:16:34.683Z,97944.88
2023-06-29T02:19:04.973Z,97944.38
2023-06-29T02:21:37.229Z,97943.09
2023-06-29T02:24:08.917Z,97943.34
2023-06-29T02:26:42.121Z,97942.06
2023-06-29T02:29:12.745Z,97940.28
2023-06-29T02:31:43.350Z,97942.56
2023-06-29T02:34:14.008Z,97937.75
2023-06-29T02:36:44.651Z,97934.47
2023-06-29T02:39:18.744Z,97938.50
2023-06-29T02:41:51.940Z,97938.03
2023-06-29T02:44:22.579Z,97939.28
2023-06-29T02:46:53.092Z,97934.97
2023-06-29T02:49:23.706Z,97936.25
2023-06-29T02:51:54.881Z,97936.50
2023-06-29T02:54:25.620Z,97939.28
2023-06-29T02:56:59.651Z,97935.72
2023-06-29T02:59:31.993Z,97940.53
2023-06-29T03:02:02.603Z,97940.31
2023-06-29T03:04:33.270Z,97934.94
2023-06-29T03:07:06.508Z,97942.06
2023-06-29T03:09:38.547Z,97938.75
2023-06-29T03:12:14.442Z,97944.84
2023-06-29T03:14:44.957Z,97946.38
2023-06-29T03:17:15.838Z,97941.28
2023-06-29T03:19:46.391Z,97933.16
2023-06-29T03:22:16.914Z,97930.38
2023-06-29T03:24:47.411Z,97920.47
2023-06-29T03:27:20.586Z,97925.00
2023-06-29T03:29:55.566Z,97926.78
2023-06-29T03:32:26.186Z,97929.84
2023-06-29T03:34:56.720Z,97929.09
2023-06-29T03:37:27.213Z,97932.13
2023-06-29T03:39:57.733Z,97926.81
2023-06-29T03:42:30.887Z,97929.63
2023-06-29T03:45:01.432Z,97924.31
2023-06-29T03:47:32.046Z,97917.97
2023-06-29T03:50:02.599Z,97911.34
2023-06-29T03:52:33.191Z,97917.44
2023-06-29T03:55:03.872Z,97919.22
2023-06-29T03:57:36.972Z,97912.88
2023-06-29T04:00:09.178Z,97917.22
2023-06-29T04:02:45.778Z,97913.41
2023-06-29T04:05:16.317Z,97910.59
2023-06-29T04:07:46.956Z,97910.59
2023-06-29T04:10:17.593Z,97915.66
2023-06-29T04:12:50.716Z,97918.72
2023-06-29T04:15:21.230Z,97913.13
2023-06-29T04:17:51.839Z,97912.38
2023-06-29T04:20:22.630Z,97908.84
2023-06-29T04:22:53.521Z,97904.53
2023-06-29T04:25:24.062Z,97908.06
2023-06-29T04:27:57.231Z,97910.38
2023-06-29T04:30:27.910Z,97914.16
2023-06-29T04:33:03.354Z,97904.28
2023-06-29T04:35:33.930Z,97911.38
2023-06-29T04:38:04.470Z,97908.59
2023-06-29T04:40:35.045Z,97909.88
2023-06-29T04:43:09.017Z,97908.66
2023-06-29T04:45:42.453Z,97911.66
2023-06-29T04:48:13.964Z,97917.03
2023-06-29T04:50:44.445Z,97915.53
2023-06-29T04:53:15.380Z,97911.47
2023-06-29T04:55:46.324Z,97904.09
2023-06-29T04:58:19.632Z,97909.44
2023-06-29T05:00:50.262Z,97908.66
2023-06-29T05:03:20.990Z,97907.13
2023-06-29T05:05:51.577Z,97905.88
2023-06-29T05:08:22.213Z,97906.38
2023-06-29T05:10:53.250Z,97902.03
2023-06-29T05:13:26.426Z,97895.44
2023-06-29T05:15:57.651Z,97895.91
2023-06-29T05:18:28.170Z,97896.41
2023-06-29T05:20:59.020Z,97894.59
2023-06-29T05:23:29.173Z,97903.00
2023-06-29T05:25:59.934Z,97898.13
2023-06-29T05:28:32.777Z,97896.56
2023-06-29T05:31:03.523Z,97893.97
2023-06-29T05:33:33.753Z,97893.16
2023-06-29T05:36:04.441Z,97893.84
2023-06-29T05:38:35.113Z,97893.50
2023-06-29T05:41:06.772Z,97886.56
2023-06-29T05:43:40.043Z,97892.06
2023-06-29T05:46:10.760Z,97889.69
2023-06-29T05:48:41.125Z,97887.78
2023-06-29T05:51:11.683Z,97874.13
2023-06-29T05:53:42.263Z,97882.19
2023-06-29T05:56:12.814Z,97874.69
2023-06-29T05:58:46.007Z,97876.06
2023-06-29T06:01:16.673Z,97881.03
2023-06-29T06:03:47.531Z,97878.16
2023-06-29T06:06:18.251Z,97886.44
2023-06-29T06:08:48.799Z,97887.31
2023-06-29T06:11:19.561Z,97888.91
2023-06-29T06:13:52.369Z,97877.31
2023-06-29T06:16:23.110Z,97880.03
2023-06-29T06:18:54.118Z,97883.44
2023-06-29T06:21:25.286Z,97883.75
2023-06-29T06:23:57.478Z,97883.22
2023-06-29T06:26:28.154Z,97874.16
2023-06-29T06:29:01.049Z,97883.72
2023-06-29T06:31:34.223Z,97873.75
2023-06-29T06:34:05.648Z,97884.75
2023-06-29T06:36:36.437Z,97876.50
2023-06-29T06:39:06.980Z,97875.72
2023-06-29T06:41:37.761Z,97877.34
2023-06-29T06:44:11.317Z,97884.63
2023-06-29T06:46:41.994Z,97881.25
2023-06-29T06:49:12.709Z,97875.06
2023-06-29T06:51:43.028Z,97881.47
2023-06-29T06:54:13.634Z,97880.41
2023-06-29T06:56:43.869Z,97876.69
2023-06-29T06:59:17.103Z,97877.41
2023-06-29T07:01:47.862Z,97879.66
2023-06-29T07:04:18.705Z,97882.69
2023-06-29T07:06:49.980Z,97878.03
2023-06-29T07:09:20.532Z,97876.16
2023-06-29T07:11:51.475Z,97866.81
2023-06-29T07:14:25.432Z,97867.50
2023-06-29T07:16:57.082Z,97866.09
2023-06-29T07:24:35.138Z,97857.56
2023-06-29T07:27:05.836Z,97864.22
2023-06-29T07:29:39.120Z,97857.06
2023-06-29T07:32:12.014Z,97850.03
2023-06-29T07:34:42.687Z,97850.81
2023-06-29T07:37:13.221Z,97847.84
2023-06-29T07:39:43.881Z,97848.09
2023-06-29T07:42:20.914Z,97841.47
2023-06-29T07:44:59.901Z,97836.91
2023-06-29T07:47:30.624Z,97838.59
2023-06-29T07:50:01.216Z,97834.09
2023-06-29T07:52:32.346Z,97828.63
2023-06-29T07:55:03.021Z,97825.34
2023-06-29T08:00:12.670Z,97825.44
2023-06-29T08:02:53.198Z,97821.75
2023-06-29T08:07:58.115Z,97823.22
2023-06-29T08:10:28.869Z,97829.22
2023-06-29T08:13:03.723Z,97835.34
2023-06-29T08:15:39.022Z,97819.63
2023-06-29T08:18:09.753Z,97819.97
2023-06-29T08:20:40.541Z,97829.72
2023-06-29T08:23:11.396Z,97829.63
2023-06-29T08:25:41.985Z,97826.78
2023-06-29T08:28:12.658Z,97815.88
2023-06-29T08:30:46.245Z,97807.75
2023-06-29T08:33:16.876Z,97802.59
2023-06-29T08:35:47.736Z,97810.09
2023-06-29T08:38:18.163Z,97807.34
2023-06-29T08:40:50.810Z,97800.88
2023-06-29T08:43:22.863Z,97795.91
2023-06-29T08:45:56.025Z,97794.94
2023-06-29T08:48:27.821Z,97791.97
2023-06-29T08:51:06.940Z,97785.03
2023-06-29T08:53:38.316Z,97794.72
2023-06-29T08:56:09.866Z,97785.78
2023-06-29T08:58:41.575Z,97788.88
2023-06-29T09:01:15.147Z,97779.94
2023-06-29T09:03:45.980Z,97785.88
2023-06-29T09:06:16.699Z,97784.13
2023-06-29T09:08:47.638Z,97782.91
2023-06-29T09:11:18.279Z,97769.47
2023-06-29T09:13:49.106Z,97766.78
2023-06-29T09:16:23.333Z,97766.91
2023-06-29T09:18:55.711Z,97778.38
2023-06-29T09:21:27.429Z,97774.34
2023-06-29T09:24:01.927Z,97762.44
2023-06-29T09:26:32.963Z,97767.34
2023-06-29T09:29:05.062Z,97763.97
2023-06-29T09:31:41.241Z,97766.53
2023-06-29T09:34:21.770Z,97765.00
2023-06-29T09:36:53.107Z,97763.22
2023-06-29T09:39:24.876Z,97765.00
2023-06-29T09:41:58.312Z,97764.03
2023-06-29T09:44:30.383Z,97749.06
2023-06-29T09:49:52.857Z,97741.56
2023-06-29T09:52:23.602Z,97739.56
2023-06-29T09:54:54.064Z,97742.00
2023-06-29T09:57:28.232Z,97737.06
2023-06-29T10:00:00.021Z,97730.28
2023-06-29T10:02:33.419Z,97739.84
2023-06-29T10:05:04.710Z,97730.88
2023-06-29T10:07:37.467Z,97731.91
2023-06-29T10:10:15.035Z,97728.16
2023-06-29T10:12:46.010Z,97728.16
2023-06-29T10:15:18.531Z,97723.47
2023-06-29T10:18:00.294Z,97722.34
2023-06-29T10:20:34.203Z,97721.03
2023-06-29T10:23:08.869Z,97712.78
2023-06-29T10:25:45.117Z,97714.03
2023-06-29T10:28:17.832Z,97712.06
2023-06-29T10:30:49.479Z,97708.09
2023-06-29T10:33:28.066Z,97712.31
2023-06-29T10:36:02.829Z,97706.31
2023-06-29T10:38:36.061Z,97705.59
2023-06-29T10:41:10.281Z,97707.09
2023-06-29T10:43:59.492Z,97706.69
2023-06-29T10:46:50.081Z,97700.94
2023-06-29T10:49:30.701Z,97701.41
2023-06-29T10:52:07.094Z,97691.59
2023-06-29T10:54:37.761Z,97687.25
2023-06-29T10:57:12.038Z,97697.41
2023-06-29T10:59:43.371Z,97699.88
2023-06-29T11:02:14.926Z,97688.31
2023-06-29T11:04:48.396Z,97690.31
2023-06-29T11:07:19.239Z,97682.28
2023-06-29T11:09:49.785Z,97677.94
2023-06-29T11:12:20.783Z,97679.34
2023-06-29T11:17:47.175Z,97656.94
2023-06-29T11:20:23.026Z,97659.84
2023-06-29T11:22:53.755Z,97653.34
2023-06-29T11:25:24.303Z,97656.56
2023-06-29T11:27:57.001Z,97650.59
2023-06-29T11:30:27.619Z,97648.00
2023-06-29T11:32:58.527Z,97637.78
2023-06-29T11:35:32.709Z,97639.13
2023-06-29T11:38:04.563Z,97637.28
2023-06-29T11:40:35.490Z,97638.00
2023-06-29T11:43:06.193Z,97646.38
2023-06-29T11:45:37.368Z,97636.75
2023-06-29T11:48:08.852Z,97635.03
2023-06-29T11:50:42.032Z,97640.25
2023-06-29T11:53:13.586Z,97637.94
2023-06-29T11:55:52.789Z,97628.56
2023-06-29T11:58:22.927Z,97635.63
2023-06-29T12:00:59.810Z,97628.31
2023-06-29T12:03:30.948Z,97629.03
2023-06-29T12:06:06.968Z,97624.25
2023-06-29T12:08:46.969Z,97611.63
2023-06-29T12:11:23.265Z,97603.06
2023-06-29T12:13:53.849Z,97615.25
2023-06-29T12:18:59.759Z,97587.34
2023-06-29T12:21:38.152Z,97585.38
2023-06-29T12:24:09.738Z,97579.38
2023-06-29T12:26:40.319Z,97591.00
2023-06-29T12:29:11.400Z,97591.19
2023-06-29T12:31:42.299Z,97585.59
2023-06-29T12:34:12.942Z,97578.97
2023-06-29T12:36:46.864Z,97569.31
2023-06-29T12:39:20.928Z,97565.72
2023-06-29T12:41:51.891Z,97573.47
2023-06-29T12:44:22.539Z,97579.66
2023-06-29T12:46:53.266Z,97576.47
2023-06-29T12:49:27.890Z,97570.81
2023-06-29T12:52:01.284Z,97578.38
2023-06-29T12:54:32.401Z,97571.41
2023-06-29T12:57:03.514Z,97566.78
2023-06-29T12:59:34.195Z,97564.97
2023-06-29T13:02:06.198Z,97555.41
2023-06-29T13:04:39.586Z,97561.16
2023-06-29T13:07:13.295Z,97565.03
2023-06-29T13:09:46.144Z,97559.84
2023-06-29T13:12:17.385Z,97555.91
2023-06-29T13:14:50.832Z,97558.00
2023-06-29T13:17:21.448Z,97561.38
2023-06-29T13:19:52.388Z,97572.69
2023-06-29T13:22:27.031Z,97563.25
2023-06-29T13:24:57.760Z,97552.00
2023-06-29T13:27:28.337Z,97557.28
2023-06-29T13:29:58.878Z,97555.97
2023-06-29T13:32:29.497Z,97547.97
2023-06-29T13:35:01.056Z,97552.00
2023-06-29T13:37:34.193Z,97547.72
2023-06-29T13:40:04.786Z,97543.91
2023-06-29T13:42:35.329Z,97542.53
2023-06-29T13:45:06.234Z,97547.81
2023-06-29T13:47:36.798Z,97530.25
2023-06-29T13:50:08.489Z,97538.66
2023-06-29T13:52:41.656Z,97532.53
2023-06-29T13:55:12.742Z,97531.72
2023-06-29T13:57:43.253Z,97539.72
2023-06-29T14:00:16.227Z,97534.50
2023-06-29T14:02:46.868Z,97536.84
2023-06-29T14:05:17.450Z,97527.75
2023-06-29T14:07:50.621Z,97527.28
2023-06-29T14:10:21.368Z,97523.75
2023-06-29T14:12:51.963Z,97515.22
2023-06-29T14:15:22.651Z,97508.47
2023-06-29T14:17:53.548Z,97510.09
2023-06-29T14:20:24.113Z,97511.19
2023-06-29T14:22:57.196Z,97509.81
2023-06-29T14:25:27.690Z,97506.69
2023-06-29T14:27:58.198Z,97501.84
2023-06-29T14:30:28.691Z,97497.00
2023-06-29T14:32:59.441Z,97497.25
2023-06-29T14:35:32.231Z,97495.56
2023-06-29T14:38:13.327Z,97494.31
2023-06-29T14:40:45.279Z,97489.72
2023-06-29T14:43:15.996Z,97490.00
2023-06-29T14:45:46.962Z,97487.06
2023-06-29T14:48:17.722Z,97485.44
2023-06-29T14:50:50.196Z,97490.22
2023-06-29T14:53:23.807Z,97487.47
2023-06-29T14:55:55.797Z,97483.53
2023-06-29T14:58:26.369Z,97476.69
2023-06-29T15:00:56.896Z,97481.84
2023-06-29T15:03:27.563Z,97475.03
2023-06-29T15:05:58.755Z,97475.28
2023-06-29T15:08:31.893Z,97474.75
2023-06-29T15:11:02.424Z,97464.72
2023-06-29T15:13:33.949Z,97469.53
2023-06-29T15:16:04.500Z,97475.97
2023-06-29T15:18:43.360Z,97479.47
2023-06-29T15:21:21.252Z,97472.72
2023-06-29T15:23:54.454Z,97462.50
2023-06-29T15:26:26.047Z,97470.81
2023-06-29T15:28:56.901Z,97466.81
2023-06-29T15:31:27.613Z,97463.63
2023-06-29T15:33:58.704Z,97463.53
2023-06-29T15:36:29.346Z,97466.97
2023-06-29T15:39:03.763Z,97462.75
2023-06-29T15:41:34.302Z,97455.69
2023-06-29T15:44:06.806Z,97454.06
2023-06-29T15:46:37.403Z,97455.91
2023-06-29T15:49:07.990Z,97451.56
2023-06-29T15:51:38.552Z,97443.97
2023-06-29T15:54:11.706Z,97451.59
2023-06-29T15:56:42.257Z,97441.41
2023-06-29T15:59:12.787Z,97441.25
2023-06-29T16:01:43.445Z,97433.91
2023-06-29T16:04:17.316Z,97435.22
2023-06-29T16:06:49.660Z,97439.78
2023-06-29T16:09:22.760Z,97438.84
2023-06-29T16:11:53.424Z,97438.06
2023-06-29T16:14:23.943Z,97441.72
2023-06-29T16:16:54.597Z,97422.44
2023-06-29T16:19:25.368Z,97432.31
2023-06-29T16:21:55.948Z,97423.19
2023-06-29T16:24:29.186Z,97429.84
2023-06-29T16:26:59.753Z,97426.94
2023-06-29T16:29:30.433Z,97419.59
2023-06-29T16:32:01.099Z,97422.63
2023-06-29T16:34:31.673Z,97419.19
2023-06-29T16:37:02.377Z,97427.34
2023-06-29T16:39:35.612Z,97415.81
2023-06-29T16:42:06.331Z,97420.09
2023-06-29T16:44:37.029Z,97409.13
2023-06-29T16:47:07.998Z,97410.81
2023-06-29T16:49:38.590Z,97407.88
2023-06-29T16:52:10.941Z,97400.66
2023-06-29T16:54:44.172Z,97402.63
2023-06-29T16:57:14.909Z,97397.84
2023-06-29T16:59:45.544Z,97411.81
2023-06-29T17:02:16.431Z,97401.50
2023-06-29T17:04:47.030Z,97400.63
2023-06-29T17:07:17.698Z,97396.00
2023-06-29T17:09:50.892Z,97395.84
2023-06-29T17:12:21.576Z,97395.25
2023-06-29T17:14:52.367Z,97398.69
2023-06-29T17:17:22.928Z,97396.50
2023-06-29T17:19:53.721Z,97395.59
2023-06-29T17:22:24.352Z,97400.41
2023-06-29T17:24:57.586Z,97396.81
2023-06-29T17:27:28.104Z,97398.75
2023-06-29T17:29:58.633Z,97396.94
2023-06-29T17:32:29.818Z,97393.81
2023-06-29T17:35:00.793Z,97389.78
2023-06-29T17:37:31.287Z,97389.50
2023-06-29T17:40:04.712Z,97386.78
2023-06-29T17:42:35.741Z,97386.50
2023-06-29T17:45:07.325Z,97383.34
2023-06-29T17:47:37.834Z,97390.84
2023-06-29T17:50:10.468Z,97391.00
2023-06-29T17:52:41.071Z,97389.22
2023-06-29T17:55:14.578Z,97383.81
2023-06-29T17:57:45.472Z,97386.94
2023-06-29T18:00:18.470Z,97385.56
2023-06-29T18:02:49.363Z,97384.69
2023-06-29T18:05:20.118Z,97382.13
2023-06-29T18:07:50.641Z,97378.84
2023-06-29T18:10:24.349Z,97382.72
2023-06-29T18:12:55.001Z,97379.84
2023-06-29T18:15:26.306Z,97379.56
2023-06-29T18:17:57.418Z,97386.13
2023-06-29T18:20:28.240Z,97381.31
2023-06-29T18:22:58.897Z,97381.03
2023-06-29T18:25:32.191Z,97383.38
2023-06-29T18:28:02.810Z,97378.72
2023-06-29T18:30:33.576Z,97381.84
2023-06-29T18:33:04.327Z,97377.63
2023-06-29T18:35:34.948Z,97380.75
2023-06-29T18:38:05.523Z,97379.22
2023-06-29T18:40:38.656Z,97383.66
2023-06-29T18:43:09.122Z,97380.69
2023-06-29T18:45:39.758Z,97382.31
2023-06-29T18:48:10.658Z,97381.66
2023-06-29T18:50:41.350Z,97379.50
2023-06-29T18:53:11.942Z,97377.81
2023-06-29T18:55:45.605Z,97378.69
2023-06-29T18:58:16.668Z,97383.28
2023-06-29T19:00:47.564Z,97375.03
2023-06-29T19:03:18.278Z,97377.25
2023-06-29T19:05:49.342Z,97381.06
2023-06-29T19:08:21.304Z,97379.25
2023-06-29T19:10:56.139Z,97382.03
2023-06-29T19:13:27.413Z,97388.09
2023-06-29T19:16:00.286Z,97374.59
2023-06-29T19:18:32.364Z,97382.28
2023-06-29T19:21:03.192Z,97384.44
2023-06-29T19:23:34.210Z,97385.44
2023-06-29T19:26:07.434Z,97393.44
2023-06-29T19:28:38.138Z,97392.94
2023-06-29T19:31:08.744Z,97388.28
2023-06-29T19:33:39.474Z,97403.25
2023-06-29T19:36:10.216Z,97399.34
2023-06-29T19:38:41.014Z,97403.19
2023-06-29T19:41:14.629Z,97408.31
2023-06-29T19:43:45.336Z,97404.94
2023-06-29T19:46:16.119Z,97409.53
2023-06-29T19:48:46.934Z,97413.31
2023-06-29T19:51:17.781Z,97414.31
2023-06-29T19:53:48.990Z,97413.78
2023-06-29T19:56:22.488Z,97416.28
2023-06-29T19:58:53.129Z,97421.63
2023-06-29T20:01:23.736Z,97425.44
2023-06-29T20:03:54.438Z,97423.41
2023-06-29T20:06:25.534Z,97429.44
2023-06-29T20:08:56.674Z,97429.50
2023-06-29T20:11:29.959Z,97420.31
2023-06-29T20:14:00.574Z,97415.59
2023-06-29T20:16:31.334Z,97421.06
2023-06-29T20:19:01.961Z,97416.19
2023-06-29T20:21:32.645Z,97415.28
2023-06-29T20:24:03.712Z,97410.00
2023-06-29T20:26:37.887Z,97410.06
2023-06-29T20:29:08.342Z,97410.88
2023-06-29T20:31:38.855Z,97418.28
2023-06-29T20:34:10.072Z,97419.81
2023-06-29T20:36:40.769Z,97427.75
2023-06-29T20:39:11.316Z,97423.03
2023-06-29T20:41:47.827Z,97421.56
2023-06-29T20:44:19.751Z,97424.75
2023-06-29T20:46:50.987Z,97426.47
2023-06-29T20:49:22.017Z,97424.59
2023-06-29T20:51:54.567Z,97428.19
2023-06-29T20:54:25.477Z,97423.09
2023-06-29T20:56:58.536Z,97420.47
2023-06-29T20:59:31.871Z,97422.94
2023-06-29T21:02:04.350Z,97412.59
2023-06-29T21:04:36.054Z,97417.88
2023-06-29T21:07:07.014Z,97407.53
2023-06-29T21:09:37.727Z,97415.81
2023-06-29T21:12:13.348Z,97405.44
2023-06-29T21:14:44.877Z,97418.63
2023-06-29T21:17:16.616Z,97418.44
2023-06-29T21:19:47.540Z,97419.34
2023-06-29T21:22:19.189Z,97418.78
2023-06-29T21:24:51.060Z,97415.81
2023-06-29T21:27:24.815Z,97418.78
2023-06-29T21:29:55.915Z,97416.16
2023-06-29T21:32:28.874Z,97413.34
2023-06-29T21:35:00.069Z,97411.44
2023-06-29T21:37:31.510Z,97414.84
2023-06-29T21:40:02.231Z,97411.28
2023-06-29T21:42:35.715Z,97412.59
2023-06-29T21:45:06.571Z,97406.94
2023-06-29T21:47:37.102Z,97400.91
2023-06-29T21:50:08.138Z,97405.44
2023-06-29T21:52:38.669Z,97405.44
2023-06-29T21:55:11.065Z,97403.56
2023-06-29T21:57:50.010Z,97407.50
2023-06-29T22:00:22.590Z,97411.81
2023-06-29T22:02:53.943Z,97409.00
2023-06-29T22:05:26.173Z,97409.38
2023-06-29T22:07:56.495Z,97398.06
2023-06-29T22:10:31.884Z,97398.06
2023-06-29T22:13:05.433Z,97397.31
2023-06-29T22:15:38.477Z,97387.72
2023-06-29T22:18:09.140Z,97393.56
2023-06-29T22:20:39.752Z,97390.75
2023-06-29T22:23:10.008Z,97382.63
2023-06-29T22:25:40.597Z,97389.03
2023-06-29T22:28:14.221Z,97386.97
2023-06-29T22:30:44.859Z,97377.75
2023-06-29T22:33:15.511Z,97384.34
2023-06-29T22:35:46.741Z,97382.81
2023-06-29T22:38:17.506Z,97378.69
2023-06-29T22:40:47.746Z,97381.31
2023-06-29T22:43:21.156Z,97375.88
2023-06-29T22:45:51.994Z,97378.88
2023-06-29T22:48:23.090Z,97375.31
2023-06-29T22:50:56.837Z,97383.38
2023-06-29T22:53:27.663Z,97376.81
2023-06-29T22:55:58.512Z,97378.13
2023-06-29T22:58:31.677Z,97382.06
2023-06-29T23:01:02.181Z,97380.75
2023-06-29T23:03:32.467Z,97381.13
2023-06-29T23:06:03.904Z,97378.47
2023-06-29T23:08:37.572Z,97379.25
2023-06-29T23:11:08.974Z,97384.69
2023-06-29T23:13:42.117Z,97380.00
2023-06-29T23:16:14.146Z,97377.94
2023-06-29T23:18:44.764Z,97379.25
2023-06-29T23:21:16.712Z,97374.72
2023-06-29T23:23:47.684Z,97382.25
2023-06-29T23:26:20.591Z,97373.03
2023-06-29T23:28:55.747Z,97363.06
2023-06-29T23:31:26.481Z,97366.28
2023-06-29T23:33:57.041Z,97360.22
2023-06-29T23:36:27.249Z,97358.72
2023-06-29T23:38:58.676Z,97360.22
2023-06-29T23:41:30.855Z,97356.66
2023-06-29T23:44:06.881Z,97355.91
2023-06-29T23:46:46.160Z,97355.53
2023-06-29T23:49:19.534Z,97351.75
2023-06-29T23:51:50.730Z,97350.25
2023-06-29T23:54:21.530Z,97349.50
2023-06-29T23:56:52.942Z,97350.06
2023-06-29T23:59:26.105Z,97349.31
